KLNA

Palm Beach County Park Airport

West Palm Beach, Florida, USA
METAR KLNA 201515Z AUTO 11013G17KT 10SM SCT060 27/21 A3035 RMK AO2 T02680214
Observed Flight Rules
Feb-20 @ 15:15 UTC (2 hours ago) Visual Flight Rules
Wind Visibility Clouds
110° at 13 knots
 Gusting to 17 knots
10 miles
  • Scattered at 6,000' AGL
Temperatures Readings
Current 27°C / 81°F
Dewpoint 21°C / 70°F
Humidity 70%
Altimeter 30.35" Hg
Pressure 1028 hPa
Elevation 11
METAR KLNA 201515Z AUTO 11013G17KT 10SM SCT060 27/21 A3035 RMK AO2 T02680214
Observed Flight Rules
Feb-20 @ 15:15 UTC
(2 hours ago)
VFR
Wind Visibility
110° at 13 knots
 Gusting to 17 knots
10 miles
Clouds
  • Scattered at 6,000' AGL
Temperature Dewpoint
27°C / 81°F 21°C / 70°F
Humidity Altimeter Pressure
70% 30.35" Hg 1028 hPa